Time;durP1;ratioP1;P1;durP2;ratioP2;P2;SDS_P1;SDS_P2;PMS_P1;PMS_P2;Temp;Humidity;BMP_temperature;BMP_pressure;BME280_temperature;BME280_humidity;BME280_pressure;Samples;Min_cycle;Max_cycle;Signal;HPM_P1;HPM_P2
2023/06/15 00:01:22;;;;;;;2.95;1.90;;;;;;;;;;5077394;28;20489;-63
2023/06/15 00:03:51;;;;;;;3.22;1.77;;;;;;;;;;5074177;28;20048;-68
2023/06/15 00:06:19;;;;;;;4.07;2.13;;;;;;;;;;5075161;28;20571;-65
2023/06/15 00:08:48;;;;;;;5.07;2.28;;;;;;;;;;5077377;28;20105;-64
2023/06/15 00:11:18;;;;;;;3.17;2.10;;;;;;;;;;5076995;28;20135;-64
2023/06/15 00:13:47;;;;;;;3.80;2.25;;;;;;;;;;5080357;28;20561;-61
2023/06/15 00:16:18;;;;;;;3.35;1.98;;;;;;;;;;5070401;28;20076;-63
2023/06/15 00:18:48;;;;;;;4.28;2.55;;;;;;;;;;5078985;28;20772;-63
2023/06/15 00:21:17;;;;;;;3.60;1.77;;;;;;;;;;5077167;28;20067;-62
2023/06/15 00:23:46;;;;;;;3.60;2.60;;;;;;;;;;5078227;28;20870;-61
2023/06/15 00:26:14;;;;;;;3.08;2.03;;;;;;;;;;5074680;28;20048;-64
2023/06/15 00:28:43;;;;;;;3.38;1.73;;;;;;;;;;5076397;28;20052;-62
2023/06/15 00:31:11;;;;;;;3.88;2.30;;;;;;;;;;5079266;28;20052;-68
2023/06/15 00:33:41;;;;;;;4.00;2.05;;;;;;;;;;5077477;28;20492;-62
2023/06/15 00:36:12;;;;;;;3.53;2.00;;;;;;;;;;5078851;28;20052;-62
2023/06/15 00:38:40;;;;;;;3.88;2.08;;;;;;;;;;5075168;28;20044;-65
2023/06/15 00:41:08;;;;;;;2.13;1.75;;;;;;;;;;5072930;28;20110;-62
2023/06/15 00:43:37;;;;;;;5.22;2.15;;;;;;;;;;5072655;28;20451;-65
2023/06/15 00:46:05;;;;;;;3.35;1.92;;;;;;;;;;5077160;28;20519;-65
2023/06/15 00:48:36;;;;;;;4.22;2.08;;;;;;;;;;5075031;28;20048;-61
2023/06/15 00:51:06;;;;;;;3.35;2.00;;;;;;;;;;5078361;28;20495;-62
2023/06/15 00:53:35;;;;;;;2.53;1.80;;;;;;;;;;5074357;28;20106;-63
2023/06/15 00:56:04;;;;;;;3.97;2.03;;;;;;;;;;5070407;28;20652;-62
2023/06/15 00:58:32;;;;;;;7.15;2.05;;;;;;;;;;5077947;28;20468;-62
2023/06/15 01:01:01;;;;;;;4.22;1.85;;;;;;;;;;5074358;28;20048;-64
2023/06/15 01:03:30;;;;;;;3.10;1.63;;;;;;;;;;5076981;28;20052;-66
2023/06/15 01:05:59;;;;;;;3.50;2.25;;;;;;;;;;5080821;28;20492;-64
2023/06/15 01:08:29;;;;;;;3.20;1.95;;;;;;;;;;5081652;28;20048;-62
2023/06/15 01:10:58;;;;;;;3.05;1.90;;;;;;;;;;5083638;28;20470;-66
2023/06/15 01:13:27;;;;;;;4.45;1.88;;;;;;;;;;5078666;28;20843;-62
2023/06/15 01:15:58;;;;;;;3.33;1.83;;;;;;;;;;5074659;28;20680;-62
2023/06/15 01:18:29;;;;;;;3.42;2.13;;;;;;;;;;5075575;28;20075;-62
2023/06/15 01:21:01;;;;;;;3.70;2.45;;;;;;;;;;5074844;28;20055;-67
2023/06/15 01:23:34;;;;;;;5.82;2.08;;;;;;;;;;5076388;28;21206;-65
2023/06/15 01:26:09;;;;;;;3.83;1.80;;;;;;;;;;5075712;28;20060;-69
2023/06/15 01:28:40;;;;;;;;;;;;;;;;;;5074671;28;20044;-64
2023/06/15 01:31:10;;;;;;;4.88;2.15;;;;;;;;;;5072026;28;20274;-63
2023/06/15 01:33:45;;;;;;;2.97;1.90;;;;;;;;;;5070721;28;20043;-62
2023/06/15 01:36:13;;;;;;;3.47;2.15;;;;;;;;;;5076489;28;20053;-63
2023/06/15 01:38:42;;;;;;;7.60;2.20;;;;;;;;;;5071557;28;20056;-63
2023/06/15 01:41:13;;;;;;;4.55;2.00;;;;;;;;;;5073919;28;20089;-62
2023/06/15 01:43:41;;;;;;;3.67;2.00;;;;;;;;;;5072883;28;20074;-63
2023/06/15 01:46:10;;;;;;;3.67;2.15;;;;;;;;;;5074536;28;20138;-62
2023/06/15 01:48:39;;;;;;;4.43;2.60;;;;;;;;;;5072764;28;21521;-61
2023/06/15 01:51:07;;;;;;;4.40;2.15;;;;;;;;;;5076681;28;20101;-64
2023/06/15 01:53:36;;;;;;;4.50;2.00;;;;;;;;;;5075524;28;20142;-63
2023/06/15 01:56:04;;;;;;;4.78;2.60;;;;;;;;;;5072663;28;20052;-65
2023/06/15 01:58:34;;;;;;;4.15;2.10;;;;;;;;;;5076887;28;20052;-63
2023/06/15 02:01:02;;;;;;;7.15;2.60;;;;;;;;;;5078005;28;20097;-64
2023/06/15 02:03:31;;;;;;;2.97;2.05;;;;;;;;;;5076947;28;20439;-65
2023/06/15 02:05:59;;;;;;;4.28;2.00;;;;;;;;;;5074931;28;20052;-64
2023/06/15 02:08:28;;;;;;;4.97;1.98;;;;;;;;;;5078628;28;20040;-63
2023/06/15 02:10:56;;;;;;;3.78;2.30;;;;;;;;;;5074445;28;20098;-62
2023/06/15 02:13:24;;;;;;;3.33;2.00;;;;;;;;;;5077385;28;20048;-62
2023/06/15 02:15:54;;;;;;;4.15;2.30;;;;;;;;;;5071359;28;20060;-64
2023/06/15 02:18:22;;;;;;;2.90;1.60;;;;;;;;;;5076137;28;20134;-62
2023/06/15 02:20:51;;;;;;;4.72;2.20;;;;;;;;;;5076389;28;20480;-61
2023/06/15 02:23:19;;;;;;;4.55;2.00;;;;;;;;;;5077474;28;20516;-63
2023/06/15 02:25:48;;;;;;;3.95;2.47;;;;;;;;;;5077066;28;20353;-61
2023/06/15 02:28:16;;;;;;;4.38;2.55;;;;;;;;;;5077841;28;20071;-65
2023/06/15 02:30:45;;;;;;;4.35;2.33;;;;;;;;;;5074531;28;20055;-65
2023/06/15 02:33:15;;;;;;;4.05;2.30;;;;;;;;;;5075917;28;20048;-62
2023/06/15 02:35:44;;;;;;;6.97;2.60;;;;;;;;;;5081567;28;20048;-61
2023/06/15 02:38:12;;;;;;;4.72;2.90;;;;;;;;;;5080344;28;20048;-64
2023/06/15 02:40:40;;;;;;;3.85;2.35;;;;;;;;;;5079342;28;20052;-61
2023/06/15 02:43:09;;;;;;;5.40;2.22;;;;;;;;;;5079846;28;20049;-62
2023/06/15 02:45:37;;;;;;;3.95;2.47;;;;;;;;;;5078156;28;20128;-62
2023/06/15 02:48:06;;;;;;;3.70;2.22;;;;;;;;;;5077363;28;20385;-61
2023/06/15 02:50:36;;;;;;;4.88;2.25;;;;;;;;;;5082979;28;20134;-64
2023/06/15 02:53:04;;;;;;;4.00;2.30;;;;;;;;;;5079112;28;20660;-66
2023/06/15 02:55:33;;;;;;;8.30;2.30;;;;;;;;;;5077849;28;20048;-65
2023/06/15 02:58:02;;;;;;;4.78;2.25;;;;;;;;;;5081134;28;20074;-64
2023/06/15 03:00:30;;;;;;;3.22;2.33;;;;;;;;;;5080270;28;20447;-61
2023/06/15 03:02:59;;;;;;;3.83;2.17;;;;;;;;;;5081270;28;20048;-61
2023/06/15 03:05:27;;;;;;;4.85;2.28;;;;;;;;;;5076783;28;20055;-63
2023/06/15 03:07:57;;;;;;;3.47;2.20;;;;;;;;;;5081540;28;20404;-63
2023/06/15 03:10:26;;;;;;;6.63;2.38;;;;;;;;;;5082001;28;20750;-62
2023/06/15 03:12:54;;;;;;;4.50;2.10;;;;;;;;;;5081816;28;20577;-63
2023/06/15 03:15:23;;;;;;;3.33;1.95;;;;;;;;;;5077902;28;20047;-62
2023/06/15 03:17:51;;;;;;;4.65;2.20;;;;;;;;;;5082216;28;20775;-61
2023/06/15 03:20:21;;;;;;;3.42;2.17;;;;;;;;;;5079423;28;20051;-65
2023/06/15 03:22:49;;;;;;;3.20;2.15;;;;;;;;;;5077028;28;20445;-61
2023/06/15 03:25:20;;;;;;;3.95;2.10;;;;;;;;;;5077380;28;20109;-67
2023/06/15 03:27:48;;;;;;;3.13;2.00;;;;;;;;;;5075340;28;20052;-61
2023/06/15 03:30:17;;;;;;;3.67;2.20;;;;;;;;;;5077079;28;20514;-67
2023/06/15 03:32:47;;;;;;;2.80;2.15;;;;;;;;;;5079648;28;20089;-63
2023/06/15 03:35:16;;;;;;;4.75;2.03;;;;;;;;;;5073247;28;20500;-61
2023/06/15 03:37:45;;;;;;;3.58;1.75;;;;;;;;;;5080927;28;20058;-62
2023/06/15 03:40:13;;;;;;;2.30;1.85;;;;;;;;;;5079025;28;20052;-64
2023/06/15 03:42:43;;;;;;;3.90;2.33;;;;;;;;;;5079652;28;20076;-68
2023/06/15 03:45:12;;;;;;;4.07;2.47;;;;;;;;;;5078466;28;20127;-62
2023/06/15 03:47:43;;;;;;;6.63;2.22;;;;;;;;;;5078090;28;20047;-65
2023/06/15 03:50:11;;;;;;;2.40;1.70;;;;;;;;;;5076862;28;20139;-61
2023/06/15 03:52:39;;;;;;;4.32;2.63;;;;;;;;;;5076084;28;20133;-66
2023/06/15 03:55:08;;;;;;;9.23;2.70;;;;;;;;;;5079225;28;21044;-63
2023/06/15 03:57:36;;;;;;;4.10;2.20;;;;;;;;;;5079483;28;20070;-64
2023/06/15 04:00:07;;;;;;;5.07;2.28;;;;;;;;;;5081195;28;20136;-66
2023/06/15 04:02:37;;;;;;;3.70;2.60;;;;;;;;;;5079529;28;20101;-61
2023/06/15 04:05:05;;;;;;;4.45;2.70;;;;;;;;;;5078159;28;20063;-62
2023/06/15 04:07:34;;;;;;;4.07;3.35;;;;;;;;;;5079148;28;20497;-65
2023/06/15 04:10:04;;;;;;;4.40;2.58;;;;;;;;;;5079006;28;20048;-62
2023/06/15 04:12:33;;;;;;;5.57;2.60;;;;;;;;;;5078403;28;20048;-62
2023/06/15 04:15:01;;;;;;;4.45;2.35;;;;;;;;;;5077653;28;20048;-65
2023/06/15 04:17:31;;;;;;;4.65;2.85;;;;;;;;;;5076153;28;20135;-63
2023/06/15 04:19:59;;;;;;;9.30;2.75;;;;;;;;;;5081811;28;20070;-62
2023/06/15 04:22:28;;;;;;;4.07;2.20;;;;;;;;;;5077285;28;20063;-62
2023/06/15 04:24:56;;;;;;;3.22;2.42;;;;;;;;;;5076182;28;20458;-60
2023/06/15 04:27:27;;;;;;;4.93;2.15;;;;;;;;;;5079285;28;20411;-68
2023/06/15 04:29:57;;;;;;;5.15;2.53;;;;;;;;;;5075249;28;20155;-61
2023/06/15 04:32:29;;;;;;;6.05;2.70;;;;;;;;;;5078727;28;20063;-66
2023/06/15 04:35:01;;;;;;;4.97;2.65;;;;;;;;;;5077156;28;22255;-62
2023/06/15 04:37:29;;;;;;;4.50;2.92;;;;;;;;;;5081120;28;20047;-63
2023/06/15 04:39:59;;;;;;;4.20;2.72;;;;;;;;;;5077966;28;20811;-61
2023/06/15 04:42:32;;;;;;;4.85;2.10;;;;;;;;;;5080580;28;20040;-65
2023/06/15 04:45:00;;;;;;;3.75;2.35;;;;;;;;;;5079715;28;20523;-70
2023/06/15 04:47:29;;;;;;;7.20;2.75;;;;;;;;;;5077503;28;20076;-64
2023/06/15 04:49:57;;;;;;;5.07;2.22;;;;;;;;;;5079932;28;20077;-67
2023/06/15 04:52:27;;;;;;;2.85;2.03;;;;;;;;;;5080274;28;20040;-61
2023/06/15 04:54:55;;;;;;;3.97;2.15;;;;;;;;;;5080100;28;20639;-61
2023/06/15 04:57:24;;;;;;;3.60;1.98;;;;;;;;;;5076608;28;20044;-61
2023/06/15 04:59:52;;;;;;;4.10;2.60;;;;;;;;;;5076718;28;20125;-61
2023/06/15 05:02:20;;;;;;;6.47;3.47;;;;;;;;;;5078665;28;20079;-63
2023/06/15 05:04:49;;;;;;;3.92;2.10;;;;;;;;;;5079447;28;20101;-61
2023/06/15 05:07:17;;;;;;;3.85;2.30;;;;;;;;;;5079782;28;20076;-67
2023/06/15 05:09:47;;;;;;;3.92;2.40;;;;;;;;;;5075845;28;20052;-62
2023/06/15 05:12:15;;;;;;;7.93;3.15;;;;;;;;;;5082115;28;20485;-63
2023/06/15 05:14:44;;;;;;;4.97;2.65;;;;;;;;;;5078495;28;20483;-61
2023/06/15 05:17:12;;;;;;;5.47;2.45;;;;;;;;;;5082919;28;20051;-61
2023/06/15 05:19:41;;;;;;;5.45;2.63;;;;;;;;;;5080980;28;20055;-61
2023/06/15 05:22:09;;;;;;;5.47;2.78;;;;;;;;;;5080921;28;20101;-63
2023/06/15 05:24:38;;;;;;;3.85;2.50;;;;;;;;;;5081514;28;20143;-62
2023/06/15 05:27:08;;;;;;;8.10;2.80;;;;;;;;;;5083107;28;20052;-62
2023/06/15 05:29:39;;;;;;;3.88;2.15;;;;;;;;;;5082494;28;20048;-63
2023/06/15 05:32:09;;;;;;;2.60;2.05;;;;;;;;;;5081740;28;20105;-62
2023/06/15 05:34:38;;;;;;;11.05;2.95;;;;;;;;;;5078722;28;20404;-65
2023/06/15 05:37:06;;;;;;;4.50;2.60;;;;;;;;;;5079574;28;20044;-67
2023/06/15 05:39:35;;;;;;;3.95;2.10;;;;;;;;;;5081984;28;20044;-63
2023/06/15 05:42:03;;;;;;;4.68;2.75;;;;;;;;;;5081639;28;20052;-62
2023/06/15 05:44:33;;;;;;;3.70;2.45;;;;;;;;;;5079366;28;20043;-62
2023/06/15 05:47:02;;;;;;;8.30;2.47;;;;;;;;;;5076560;28;20086;-64
2023/06/15 05:49:30;;;;;;;4.00;2.25;;;;;;;;;;5079249;28;20093;-62
2023/06/15 05:51:58;;;;;;;5.40;2.63;;;;;;;;;;5079444;28;20518;-62
2023/06/15 05:54:27;;;;;;;3.60;2.28;;;;;;;;;;5077889;28;20040;-61
2023/06/15 05:56:56;;;;;;;3.10;2.03;;;;;;;;;;5079942;28;20068;-62
2023/06/15 05:59:24;;;;;;;4.07;2.45;;;;;;;;;;5078479;28;20063;-66
2023/06/15 06:02:02;;;;;;;4.30;2.75;;;;;;;;;;5078583;28;20052;-62
2023/06/15 06:04:31;;;;;;;5.90;2.08;;;;;;;;;;5080083;28;20048;-65
2023/06/15 06:06:59;;;;;;;4.90;2.60;;;;;;;;;;5082536;28;20083;-62
2023/06/15 06:09:28;;;;;;;6.40;3.00;;;;;;;;;;5081265;28;20501;-62
2023/06/15 06:11:57;;;;;;;3.53;2.30;;;;;;;;;;5085007;28;20138;-63
2023/06/15 06:14:25;;;;;;;5.47;2.75;;;;;;;;;;5084349;28;20076;-64
2023/06/15 06:16:54;;;;;;;5.13;2.60;;;;;;;;;;5083917;28;20084;-70
2023/06/15 06:19:24;;;;;;;6.00;2.53;;;;;;;;;;5083043;28;20055;-61
2023/06/15 06:21:52;;;;;;;4.75;2.35;;;;;;;;;;5083189;28;20134;-61
2023/06/15 06:24:20;;;;;;;4.47;2.55;;;;;;;;;;5083247;28;20121;-61
2023/06/15 06:26:51;;;;;;;6.68;2.53;;;;;;;;;;5082663;28;20548;-68
2023/06/15 06:29:20;;;;;;;3.25;2.30;;;;;;;;;;5081717;28;20090;-64
2023/06/15 06:31:49;;;;;;;4.13;2.58;;;;;;;;;;5082754;28;20405;-63
2023/06/15 06:34:18;;;;;;;3.88;2.75;;;;;;;;;;5083843;28;20036;-61
2023/06/15 06:36:48;;;;;;;4.45;2.70;;;;;;;;;;5080860;28;20480;-64
2023/06/15 06:39:16;;;;;;;4.22;2.05;;;;;;;;;;5081869;28;20492;-62
2023/06/15 06:41:45;;;;;;;4.50;2.75;;;;;;;;;;5083865;28;20064;-67
2023/06/15 06:44:14;;;;;;;4.85;2.47;;;;;;;;;;5083983;28;20060;-63
2023/06/15 06:46:43;;;;;;;6.30;2.67;;;;;;;;;;5083818;28;20048;-62
2023/06/15 06:49:12;;;;;;;5.07;3.03;;;;;;;;;;5084645;28;20091;-62
2023/06/15 06:51:40;;;;;;;4.25;2.78;;;;;;;;;;5081902;28;20756;-63
2023/06/15 06:54:10;;;;;;;3.55;2.42;;;;;;;;;;5081943;28;20513;-63
2023/06/15 06:56:38;;;;;;;4.70;2.85;;;;;;;;;;5084929;28;20048;-63
2023/06/15 06:59:07;;;;;;;3.15;2.03;;;;;;;;;;5083884;28;20048;-61
2023/06/15 07:01:35;;;;;;;4.03;2.63;;;;;;;;;;5082028;28;20056;-64
2023/06/15 07:04:04;;;;;;;3.88;2.80;;;;;;;;;;5083176;28;20102;-65
2023/06/15 07:06:32;;;;;;;3.60;2.40;;;;;;;;;;5083773;28;20048;-62
2023/06/15 07:09:01;;;;;;;5.95;2.83;;;;;;;;;;5084652;28;20052;-61
2023/06/15 07:11:30;;;;;;;4.05;2.90;;;;;;;;;;5083709;28;20127;-61
2023/06/15 07:14:02;;;;;;;4.95;2.80;;;;;;;;;;5083844;28;20059;-67
2023/06/15 07:16:31;;;;;;;5.13;3.00;;;;;;;;;;5082844;28;20133;-61
2023/06/15 07:18:59;;;;;;;5.20;2.80;;;;;;;;;;5082929;28;20052;-64
2023/06/15 07:21:28;;;;;;;4.18;2.38;;;;;;;;;;5082380;28;20153;-61
2023/06/15 07:23:56;;;;;;;5.47;2.53;;;;;;;;;;5083290;28;20501;-63
2023/06/15 07:26:25;;;;;;;5.00;2.55;;;;;;;;;;5078361;28;20090;-62
2023/06/15 07:28:54;;;;;;;5.35;3.20;;;;;;;;;;5080462;28;20492;-63
2023/06/15 07:31:23;;;;;;;4.30;2.45;;;;;;;;;;5079947;28;20048;-63
2023/06/15 07:33:53;;;;;;;5.85;3.28;;;;;;;;;;5077802;28;20059;-61
2023/06/15 07:36:22;;;;;;;3.70;2.47;;;;;;;;;;5079475;28;20040;-63
2023/06/15 07:38:52;;;;;;;3.67;2.53;;;;;;;;;;5080521;28;20052;-62
2023/06/15 07:41:21;;;;;;;4.78;2.95;;;;;;;;;;5082351;28;20098;-68
2023/06/15 07:43:49;;;;;;;8.32;3.05;;;;;;;;;;5084080;28;20071;-62
2023/06/15 07:46:20;;;;;;;7.03;3.05;;;;;;;;;;5078539;28;20125;-62
2023/06/15 07:48:49;;;;;;;5.47;3.13;;;;;;;;;;5082453;28;20051;-62
2023/06/15 07:51:17;;;;;;;6.32;3.10;;;;;;;;;;5081780;28;20048;-63
2023/06/15 07:54:05;;;;;;;5.68;2.53;;;;;;;;;;5083081;28;20051;-63
2023/06/15 07:56:33;;;;;;;3.38;2.75;;;;;;;;;;5082222;28;20072;-64
2023/06/15 07:59:02;;;;;;;5.53;2.92;;;;;;;;;;5081722;28;20586;-62
2023/06/15 08:01:32;;;;;;;6.13;2.80;;;;;;;;;;5083585;28;20137;-64
2023/06/15 08:04:01;;;;;;;4.40;2.75;;;;;;;;;;5082420;28;20137;-63
2023/06/15 08:06:30;;;;;;;3.70;2.67;;;;;;;;;;5076828;28;20047;-62
2023/06/15 08:08:58;;;;;;;3.15;2.25;;;;;;;;;;5082299;28;20128;-63
2023/06/15 08:11:27;;;;;;;5.20;2.75;;;;;;;;;;5078722;28;20052;-64
2023/06/15 08:13:57;;;;;;;5.30;2.00;;;;;;;;;;5083261;28;20206;-64
2023/06/15 08:16:25;;;;;;;3.92;2.70;;;;;;;;;;5080603;28;20052;-63
2023/06/15 08:18:55;;;;;;;7.53;2.10;;;;;;;;;;5081282;28;20053;-62
2023/06/15 08:21:24;;;;;;;2.97;2.30;;;;;;;;;;5081828;28;20327;-70
2023/06/15 08:23:53;;;;;;;6.30;2.60;;;;;;;;;;5085210;28;20047;-65
2023/06/15 08:26:21;;;;;;;3.47;2.03;;;;;;;;;;5081277;28;20071;-62
2023/06/15 08:28:50;;;;;;;4.10;2.80;;;;;;;;;;5080080;28;20052;-64
2023/06/15 08:31:22;;;;;;;5.03;2.90;;;;;;;;;;5081288;28;20143;-62
2023/06/15 08:33:51;;;;;;;4.35;2.60;;;;;;;;;;5080680;28;20068;-63
2023/06/15 08:36:21;;;;;;;4.95;2.55;;;;;;;;;;5076288;28;20052;-66
2023/06/15 08:38:49;;;;;;;3.95;2.17;;;;;;;;;;5081973;28;20474;-64
2023/06/15 08:41:18;;;;;;;4.22;2.33;;;;;;;;;;5079467;28;20048;-64
2023/06/15 08:43:47;;;;;;;5.68;2.70;;;;;;;;;;5079856;28;20067;-63
2023/06/15 08:46:16;;;;;;;7.90;3.08;;;;;;;;;;5080337;28;20047;-66
2023/06/15 08:48:45;;;;;;;6.65;3.42;;;;;;;;;;5078475;28;20158;-64
2023/06/15 08:51:14;;;;;;;5.90;2.80;;;;;;;;;;5079937;28;20461;-68
2023/06/15 08:53:45;;;;;;;4.35;2.40;;;;;;;;;;5079147;28;20048;-63
2023/06/15 08:56:13;;;;;;;4.65;2.65;;;;;;;;;;5079560;28;20044;-62
2023/06/15 08:58:49;;;;;;;5.25;2.83;;;;;;;;;;5079690;28;20055;-63
2023/06/15 09:01:19;;;;;;;4.47;2.47;;;;;;;;;;5077937;28;20044;-63
2023/06/15 09:03:48;;;;;;;3.97;2.17;;;;;;;;;;5080499;28;20056;-63
2023/06/15 09:06:16;;;;;;;4.00;2.45;;;;;;;;;;5080902;28;20496;-63
2023/06/15 09:08:46;;;;;;;3.88;2.33;;;;;;;;;;5081544;28;20083;-65
2023/06/15 09:11:14;;;;;;;3.88;2.30;;;;;;;;;;5080669;28;20558;-62
2023/06/15 09:13:43;;;;;;;2.83;1.85;;;;;;;;;;5079845;28;20557;-63
2023/06/15 09:16:11;;;;;;;3.80;2.40;;;;;;;;;;5081001;28;20100;-63
2023/06/15 09:18:44;;;;;;;4.57;2.67;;;;;;;;;;5081434;28;20101;-63
2023/06/15 09:21:14;;;;;;;6.13;2.17;;;;;;;;;;5080533;28;20048;-62
2023/06/15 09:23:44;;;;;;;3.00;2.35;;;;;;;;;;5082052;28;20044;-64
2023/06/15 09:26:23;;;;;;;4.32;2.08;;;;;;;;;;5082307;28;20047;-63
2023/06/15 09:28:54;;;;;;;4.05;2.72;;;;;;;;;;5079413;28;20390;-63
2023/06/15 09:31:32;;;;;;;4.00;2.67;;;;;;;;;;5078230;28;20453;-64
2023/06/15 09:34:02;;;;;;;3.95;2.20;;;;;;;;;;5080621;28;20048;-63
2023/06/15 09:36:35;;;;;;;3.17;2.10;;;;;;;;;;5078199;28;20052;-67
2023/06/15 09:39:04;;;;;;;5.60;2.40;;;;;;;;;;5079771;28;20440;-64
2023/06/15 09:41:35;;;;;;;3.58;2.63;;;;;;;;;;5081866;28;20071;-64
2023/06/15 09:44:05;;;;;;;5.13;2.80;;;;;;;;;;5082931;28;20067;-62
2023/06/15 09:46:33;;;;;;;3.05;2.38;;;;;;;;;;5081966;28;20044;-66
2023/06/15 09:49:03;;;;;;;7.90;2.35;;;;;;;;;;5081300;28;20101;-63
2023/06/15 09:51:37;;;;;;;5.30;2.58;;;;;;;;;;5081626;28;20565;-65
2023/06/15 09:54:05;;;;;;;4.67;2.17;;;;;;;;;;5080785;28;20109;-65
2023/06/15 09:56:36;;;;;;;5.22;2.75;;;;;;;;;;5079069;28;20116;-63
2023/06/15 09:59:05;;;;;;;3.72;2.22;;;;;;;;;;5076569;28;20565;-63
2023/06/15 10:01:36;;;;;;;5.20;2.30;;;;;;;;;;5080827;28;20065;-63
2023/06/15 10:04:06;;;;;;;4.65;2.28;;;;;;;;;;5081211;28;20051;-64
2023/06/15 10:06:39;;;;;;;4.18;2.53;;;;;;;;;;5076847;28;20054;-64
2023/06/15 10:09:09;;;;;;;3.50;2.30;;;;;;;;;;5077587;28;20041;-65
2023/06/15 10:11:41;;;;;;;3.63;2.72;;;;;;;;;;5078421;28;20050;-64
2023/06/15 10:14:11;;;;;;;4.25;2.15;;;;;;;;;;5078861;28;20068;-63
2023/06/15 10:16:40;;;;;;;4.32;2.13;;;;;;;;;;5079807;28;20515;-66
2023/06/15 10:19:11;;;;;;;5.70;2.45;;;;;;;;;;5079579;28;20066;-62
2023/06/15 10:21:42;;;;;;;3.97;2.20;;;;;;;;;;5081112;28;20044;-62
2023/06/15 10:24:12;;;;;;;3.70;2.55;;;;;;;;;;5078200;28;20057;-62
2023/06/15 10:26:42;;;;;;;3.00;2.30;;;;;;;;;;5078789;28;20044;-69
2023/06/15 10:29:12;;;;;;;4.22;2.17;;;;;;;;;;5080487;28;20048;-62
2023/06/15 10:31:43;;;;;;;4.40;2.50;;;;;;;;;;5082229;28;20048;-62
2023/06/15 10:34:15;;;;;;;4.15;2.05;;;;;;;;;;5081481;28;20044;-69
2023/06/15 10:36:46;;;;;;;4.43;2.35;;;;;;;;;;5079804;28;20618;-62
2023/06/15 10:39:18;;;;;;;4.32;2.35;;;;;;;;;;5082048;28;20052;-64
2023/06/15 10:41:48;;;;;;;3.63;2.53;;;;;;;;;;5079929;28;20044;-64
2023/06/15 10:44:16;;;;;;;2.10;1.70;;;;;;;;;;5080174;28;20462;-69
2023/06/15 10:46:45;;;;;;;3.92;2.25;;;;;;;;;;5079010;28;20473;-68
2023/06/15 10:49:13;;;;;;;3.45;2.08;;;;;;;;;;5079362;28;20036;-64
2023/06/15 10:51:42;;;;;;;3.17;2.00;;;;;;;;;;5081843;28;20051;-64
2023/06/15 10:54:22;;;;;;;2.65;1.80;;;;;;;;;;5079409;28;20052;-63
2023/06/15 10:56:53;;;;;;;2.88;2.00;;;;;;;;;;5084324;28;20082;-64
2023/06/15 10:59:47;;;;;;;4.75;2.05;;;;;;;;;;5081790;28;20056;-63
2023/06/15 11:02:34;;;;;;;5.97;2.20;;;;;;;;;;5085173;28;20101;-68
2023/06/15 11:05:03;;;;;;;3.42;1.88;;;;;;;;;;5082443;28;20620;-63
2023/06/15 11:07:35;;;;;;;4.90;2.22;;;;;;;;;;5083717;28;20037;-64
2023/06/15 11:10:04;;;;;;;4.50;1.85;;;;;;;;;;5083761;28;20085;-63
2023/06/15 11:12:35;;;;;;;2.70;2.17;;;;;;;;;;5083821;28;20113;-67
2023/06/15 11:15:03;;;;;;;2.95;2.10;;;;;;;;;;5083516;28;20047;-65
2023/06/15 11:17:32;;;;;;;3.33;2.10;;;;;;;;;;5083754;28;20987;-64
2023/06/15 11:20:07;;;;;;;4.00;1.92;;;;;;;;;;5084366;28;20523;-63
2023/06/15 11:22:35;;;;;;;7.18;2.10;;;;;;;;;;5082034;28;20097;-64
2023/06/15 11:25:05;;;;;;;2.88;1.98;;;;;;;;;;5080823;28;20376;-64
2023/06/15 11:27:36;;;;;;;2.47;1.90;;;;;;;;;;5083126;28;21544;-65
2023/06/15 11:30:08;;;;;;;3.38;2.08;;;;;;;;;;5083524;28;20052;-64
2023/06/15 11:32:36;;;;;;;3.85;1.92;;;;;;;;;;5085208;28;20044;-64
2023/06/15 11:35:05;;;;;;;4.32;2.42;;;;;;;;;;5080824;28;20596;-65
2023/06/15 11:37:33;;;;;;;3.10;2.00;;;;;;;;;;5084504;28;20070;-63
2023/06/15 11:40:06;;;;;;;2.15;1.63;;;;;;;;;;5084324;28;20048;-64
2023/06/15 11:42:35;;;;;;;2.80;1.88;;;;;;;;;;5080479;28;20055;-68
2023/06/15 11:45:04;;;;;;;2.42;1.85;;;;;;;;;;5084099;28;20056;-64
2023/06/15 11:47:35;;;;;;;2.92;1.77;;;;;;;;;;5081396;28;20569;-65
2023/06/15 11:50:04;;;;;;;2.83;2.20;;;;;;;;;;5081893;28;20466;-64
2023/06/15 11:52:32;;;;;;;1.73;1.63;;;;;;;;;;5081955;28;20048;-64
2023/06/15 11:55:07;;;;;;;2.85;2.00;;;;;;;;;;5080729;28;20527;-64
2023/06/15 11:57:38;;;;;;;2.35;1.85;;;;;;;;;;5083802;28;20097;-69
2023/06/15 12:00:08;;;;;;;2.63;1.67;;;;;;;;;;5083802;28;20044;-65
2023/06/15 12:02:36;;;;;;;3.92;1.98;;;;;;;;;;5082038;28;20546;-64
2023/06/15 12:05:05;;;;;;;2.65;2.20;;;;;;;;;;5082604;28;20051;-66
2023/06/15 12:07:34;;;;;;;5.00;2.78;;;;;;;;;;5078901;28;20048;-64
2023/06/15 12:10:07;;;;;;;3.60;1.77;;;;;;;;;;5078125;28;20141;-66
2023/06/15 12:12:37;;;;;;;3.03;2.33;;;;;;;;;;5078154;28;20055;-66
2023/06/15 12:15:06;;;;;;;3.63;2.00;;;;;;;;;;5081226;28;20051;-65
2023/06/15 12:17:36;;;;;;;3.33;1.85;;;;;;;;;;5081479;28;20717;-65
2023/06/15 12:20:09;;;;;;;3.05;2.10;;;;;;;;;;5081275;28;20130;-65
2023/06/15 12:22:38;;;;;;;3.00;1.80;;;;;;;;;;5080131;28;20077;-69
2023/06/15 12:25:07;;;;;;;4.85;2.10;;;;;;;;;;5078003;28;20447;-65
2023/06/15 12:27:44;;;;;;;3.70;2.10;;;;;;;;;;5082904;28;20048;-64
2023/06/15 12:30:13;;;;;;;5.00;2.25;;;;;;;;;;5082284;28;20048;-65
2023/06/15 12:32:45;;;;;;;3.90;1.90;;;;;;;;;;5082113;28;20511;-64
2023/06/15 12:35:31;;;;;;;4.22;1.98;;;;;;;;;;5080711;28;20048;-63
2023/06/15 12:37:59;;;;;;;4.85;1.92;;;;;;;;;;5082424;28;20145;-62
2023/06/15 12:40:28;;;;;;;3.50;2.05;;;;;;;;;;5078925;28;20115;-63
2023/06/15 12:43:04;;;;;;;3.53;2.45;;;;;;;;;;5080754;28;20044;-63
2023/06/15 12:45:33;;;;;;;2.92;2.08;;;;;;;;;;5081780;28;20060;-64
2023/06/15 12:48:01;;;;;;;3.67;2.08;;;;;;;;;;5077405;28;20059;-65
2023/06/15 12:50:30;;;;;;;2.67;2.08;;;;;;;;;;5079357;28;20059;-65
2023/06/15 12:52:59;;;;;;;3.28;2.10;;;;;;;;;;5079728;28;20080;-62
2023/06/15 12:55:28;;;;;;;2.47;1.75;;;;;;;;;;5080678;28;20051;-63
2023/06/15 12:57:57;;;;;;;3.58;2.20;;;;;;;;;;5081738;28;20059;-63
2023/06/15 13:00:27;;;;;;;3.88;2.10;;;;;;;;;;5079712;28;20046;-66
2023/06/15 13:02:57;;;;;;;3.70;2.15;;;;;;;;;;5080945;28;20493;-64
2023/06/15 13:05:26;;;;;;;3.22;2.17;;;;;;;;;;5081857;28;20622;-64
2023/06/15 13:07:55;;;;;;;2.63;1.75;;;;;;;;;;5081042;28;20052;-64
2023/06/15 13:10:23;;;;;;;4.07;2.30;;;;;;;;;;5081517;28;20131;-65
2023/06/15 13:12:52;;;;;;;4.38;2.00;;;;;;;;;;5079744;28;20113;-64
2023/06/15 13:15:21;;;;;;;1.80;1.58;;;;;;;;;;5081737;28;20451;-64
2023/06/15 13:17:51;;;;;;;3.70;2.10;;;;;;;;;;5081328;28;20047;-65
2023/06/15 13:20:20;;;;;;;4.43;2.13;;;;;;;;;;5081263;28;20527;-63
2023/06/15 13:22:50;;;;;;;2.65;2.13;;;;;;;;;;5083330;28;20053;-63
2023/06/15 13:25:19;;;;;;;2.85;2.10;;;;;;;;;;5078932;28;20372;-63
2023/06/15 13:27:48;;;;;;;3.10;1.73;;;;;;;;;;5079492;28;20078;-63
2023/06/15 13:30:16;;;;;;;3.03;1.83;;;;;;;;;;5079746;28;20052;-66
2023/06/15 13:32:46;;;;;;;3.72;1.90;;;;;;;;;;5079838;28;20487;-63
2023/06/15 13:35:16;;;;;;;3.20;2.03;;;;;;;;;;5080525;28;20047;-64
2023/06/15 13:37:46;;;;;;;2.53;1.50;;;;;;;;;;5082136;28;20068;-66
2023/06/15 13:40:15;;;;;;;2.17;1.58;;;;;;;;;;5082250;28;20435;-64
2023/06/15 13:42:44;;;;;;;2.63;1.73;;;;;;;;;;5080303;28;20055;-70
2023/06/15 13:45:14;;;;;;;3.97;1.92;;;;;;;;;;5079175;28;20052;-66
2023/06/15 13:47:44;;;;;;;3.03;1.80;;;;;;;;;;5082203;28;20291;-65
2023/06/15 13:50:13;;;;;;;3.90;2.03;;;;;;;;;;5080551;28;20067;-64
2023/06/15 13:52:46;;;;;;;2.60;1.95;;;;;;;;;;5082499;28;20319;-69
2023/06/15 13:55:16;;;;;;;2.75;1.98;;;;;;;;;;5079408;28;20450;-66
2023/06/15 13:57:45;;;;;;;2.67;1.60;;;;;;;;;;5079558;28;20141;-68
2023/06/15 14:00:16;;;;;;;6.18;1.67;;;;;;;;;;5081321;28;20052;-66
2023/06/15 14:02:46;;;;;;;2.50;1.80;;;;;;;;;;5079066;28;20077;-66
2023/06/15 14:05:15;;;;;;;2.78;2.00;;;;;;;;;;5078404;28;20117;-66
2023/06/15 14:07:45;;;;;;;2.22;1.77;;;;;;;;;;5079621;28;20036;-64
2023/06/15 14:10:14;;;;;;;3.40;1.70;;;;;;;;;;5078013;28;20036;-66
2023/06/15 14:12:43;;;;;;;3.60;1.63;;;;;;;;;;5077754;28;20565;-69
2023/06/15 14:15:11;;;;;;;2.75;1.95;;;;;;;;;;5077953;28;20341;-65
2023/06/15 14:17:40;;;;;;;2.63;1.85;;;;;;;;;;5080762;28;20052;-63
2023/06/15 14:20:09;;;;;;;2.55;1.70;;;;;;;;;;5079920;28;20063;-69
2023/06/15 14:22:37;;;;;;;2.42;1.42;;;;;;;;;;5080347;28;20397;-64
2023/06/15 14:25:07;;;;;;;3.60;2.00;;;;;;;;;;5079238;28;20105;-64
2023/06/15 14:27:36;;;;;;;2.28;1.70;;;;;;;;;;5081116;28;20048;-64
2023/06/15 14:30:05;;;;;;;3.95;2.13;;;;;;;;;;5081546;28;20113;-64
2023/06/15 14:32:34;;;;;;;4.05;1.73;;;;;;;;;;5083229;28;20044;-69
2023/06/15 14:35:03;;;;;;;3.47;2.05;;;;;;;;;;5083338;28;20043;-67
2023/06/15 14:37:31;;;;;;;2.35;1.70;;;;;;;;;;5085761;28;20051;-67
2023/06/15 14:40:01;;;;;;;3.10;2.08;;;;;;;;;;5086542;28;20044;-65
2023/06/15 14:42:31;;;;;;;2.88;1.95;;;;;;;;;;5084604;28;20056;-64
2023/06/15 14:45:00;;;;;;;2.63;1.98;;;;;;;;;;5084404;28;20131;-66
2023/06/15 14:47:28;;;;;;;3.28;2.00;;;;;;;;;;5084545;28;20044;-66
2023/06/15 14:49:57;;;;;;;2.85;1.88;;;;;;;;;;5082759;28;20453;-65
2023/06/15 14:52:25;;;;;;;6.88;2.00;;;;;;;;;;5084990;28;20048;-66
2023/06/15 14:54:54;;;;;;;2.40;1.70;;;;;;;;;;5080935;28;20052;-64
2023/06/15 14:57:22;;;;;;;2.95;2.17;;;;;;;;;;5084819;28;20549;-65